Terminal Aerodrome Forecast
Issued by NWS Twin Cities, MN

Home | Current Version | Previous Version | Text Only | Print | Product List | Glossary Off
Versions: 1 2 3 4 5 6 7 8 9 10 11 12 13 14 15 16 17 18 19 20 21 22 23 24 25 26 27

000
FTUS43 KMPX 221100
TAFEAU
TAF
KEAU 221128Z 2212/2312 14005KT P6SM SKC
     FM221600 14012G18KT P6SM FEW250
     FM222000 15013G20KT P6SM BKN050 OVC120
     FM230000 14008KT P6SM SCT020 OVC040 PROB30 2305/2308 6SM -SHRA
     FM230800 16008KT 5SM -SHRA BR BKN020 OVC030=

USA.gov is the U.S. government's official web portal to all federal, state and local government web resources and services.